createdAt,value
2018-09-21T00:00:01.279Z,24.42
2018-09-21T00:02:28.973Z,24.43
2018-09-21T00:04:56.652Z,24.43
2018-09-21T00:07:24.318Z,24.40
2018-09-21T00:09:51.959Z,24.38
2018-09-21T00:12:19.928Z,24.34
2018-09-21T00:14:47.594Z,24.32
2018-09-21T00:17:15.277Z,24.28
2018-09-21T00:19:43.013Z,24.30
2018-09-21T00:22:10.670Z,24.23
2018-09-21T00:24:38.350Z,24.20
2018-09-21T00:27:06.145Z,24.17
2018-09-21T00:29:33.841Z,24.15
2018-09-21T00:32:01.529Z,24.06
2018-09-21T00:34:29.226Z,24.04
2018-09-21T00:36:56.925Z,24.06
2018-09-21T00:39:24.574Z,24.07
2018-09-21T00:41:52.279Z,24.04
2018-09-21T00:44:20.047Z,24.00
2018-09-21T00:46:47.765Z,24.02
2018-09-21T00:49:15.527Z,23.96
2018-09-21T00:51:43.201Z,23.89
2018-09-21T00:54:11.003Z,23.84
2018-09-21T00:56:38.773Z,23.83
2018-09-21T00:59:06.543Z,23.79
2018-09-21T01:01:34.210Z,23.76
2018-09-21T01:04:01.931Z,23.76
2018-09-21T01:06:29.777Z,23.75
2018-09-21T01:08:57.529Z,23.72
2018-09-21T01:11:25.229Z,23.75
2018-09-21T01:13:52.886Z,23.74
2018-09-21T01:16:20.585Z,23.75
2018-09-21T01:18:48.277Z,23.82
2018-09-21T01:21:16.072Z,23.81
2018-09-21T01:23:43.808Z,23.77
2018-09-21T01:26:11.636Z,23.77
2018-09-21T01:28:39.286Z,23.70
2018-09-21T01:31:06.997Z,23.83
2018-09-21T01:33:34.697Z,23.79
2018-09-21T01:36:02.419Z,23.75
2018-09-21T01:38:30.179Z,23.73
2018-09-21T01:40:57.834Z,23.70
2018-09-21T01:43:25.498Z,23.71
2018-09-21T01:45:53.196Z,23.65
2018-09-21T01:48:20.867Z,23.60
2018-09-21T01:50:48.542Z,23.64
2018-09-21T01:53:16.244Z,23.64
2018-09-21T01:55:43.908Z,23.60
2018-09-21T01:58:11.578Z,23.55
2018-09-21T02:00:39.306Z,23.46
2018-09-21T02:03:07.142Z,23.42
2018-09-21T02:05:34.797Z,23.39
2018-09-21T02:08:02.462Z,23.38
2018-09-21T02:10:30.172Z,23.35
2018-09-21T02:12:57.849Z,23.36
2018-09-21T02:15:25.495Z,23.34
2018-09-21T02:17:53.305Z,23.32
2018-09-21T02:20:20.953Z,23.33
2018-09-21T02:22:48.709Z,23.32
2018-09-21T02:25:16.375Z,23.28
2018-09-21T02:27:44.022Z,23.21
2018-09-21T02:30:11.724Z,23.22
2018-09-21T02:32:39.410Z,23.19
2018-09-21T02:35:07.107Z,23.20
2018-09-21T02:37:34.797Z,23.17
2018-09-21T02:40:02.533Z,23.20
2018-09-21T02:42:30.266Z,23.25
2018-09-21T02:44:57.996Z,23.26
2018-09-21T02:47:25.684Z,23.25
2018-09-21T02:49:53.372Z,23.23
2018-09-21T02:52:21.040Z,23.14
2018-09-21T02:54:48.730Z,23.10
2018-09-21T02:57:16.429Z,23.08
2018-09-21T02:59:44.094Z,23.03
2018-09-21T03:02:11.818Z,23.04
2018-09-21T03:04:45.351Z,23.13
2018-09-21T03:07:12.998Z,23.01
2018-09-21T03:09:40.685Z,23.03
2018-09-21T03:12:08.389Z,22.88
2018-09-21T03:14:36.120Z,22.95
2018-09-21T03:17:03.790Z,22.94
2018-09-21T03:19:31.458Z,22.99
2018-09-21T03:21:59.212Z,23.01
2018-09-21T03:24:26.879Z,23.00
2018-09-21T03:26:54.530Z,22.94
2018-09-21T03:29:22.229Z,22.93
2018-09-21T03:31:49.885Z,22.88
2018-09-21T03:34:17.550Z,22.87
2018-09-21T03:36:45.224Z,22.77
2018-09-21T03:39:12.929Z,22.73
2018-09-21T03:41:40.604Z,22.79
2018-09-21T03:44:08.296Z,22.70
2018-09-21T03:46:36.065Z,22.75
2018-09-21T03:49:03.859Z,22.65
2018-09-21T03:51:31.540Z,22.57
2018-09-21T03:53:59.190Z,22.56
2018-09-21T03:56:26.970Z,22.36
2018-09-21T03:58:54.792Z,22.30
2018-09-21T04:01:22.509Z,22.03
2018-09-21T04:03:50.206Z,21.73
2018-09-21T04:06:17.895Z,21.69
2018-09-21T04:08:45.603Z,21.74
2018-09-21T04:11:13.290Z,21.72
2018-09-21T04:13:40.970Z,21.62
2018-09-21T04:16:09.214Z,21.60
2018-09-21T04:18:37.142Z,21.61
2018-09-21T04:21:05.322Z,21.70
2018-09-21T04:23:33.165Z,21.76
2018-09-21T04:26:01.037Z,21.73
2018-09-21T04:28:28.927Z,21.74
2018-09-21T04:30:56.773Z,21.59
2018-09-21T04:33:24.940Z,21.65
2018-09-21T04:35:52.948Z,21.73
2018-09-21T04:38:20.886Z,21.72
2018-09-21T04:40:48.834Z,21.75
2018-09-21T04:43:16.655Z,21.77
2018-09-21T04:45:44.591Z,21.79
2018-09-21T04:48:12.475Z,21.86
2018-09-21T04:50:40.490Z,21.88
2018-09-21T04:53:08.618Z,21.83
2018-09-21T04:55:36.306Z,21.88
2018-09-21T04:58:04.077Z,21.95
2018-09-21T05:00:31.797Z,21.99
2018-09-21T05:02:59.590Z,22.03
2018-09-21T05:05:27.385Z,22.03
2018-09-21T05:07:55.532Z,22.05
2018-09-21T05:10:23.494Z,22.16
2018-09-21T05:12:51.288Z,22.22
2018-09-21T05:15:19.371Z,22.31
2018-09-21T05:17:47.340Z,22.44
2018-09-21T05:20:15.274Z,22.51
2018-09-21T05:22:43.286Z,22.61
2018-09-21T05:25:11.440Z,22.68
2018-09-21T05:27:39.341Z,22.76
2018-09-21T05:30:07.485Z,22.71
2018-09-21T05:32:35.458Z,22.71
2018-09-21T05:35:03.712Z,22.76
2018-09-21T05:37:31.798Z,22.83
2018-09-21T05:39:59.709Z,22.81
2018-09-21T05:42:27.419Z,22.93
2018-09-21T05:44:55.573Z,22.91
2018-09-21T05:47:23.385Z,23.07
2018-09-21T05:49:51.235Z,23.16
2018-09-21T05:52:19.144Z,23.19
2018-09-21T05:54:47.077Z,23.36
2018-09-21T05:57:15.189Z,23.49
2018-09-21T05:59:42.919Z,23.67
2018-09-21T06:02:10.800Z,23.85
2018-09-21T06:04:38.489Z,24.02
2018-09-21T06:07:06.260Z,24.08
2018-09-21T06:09:33.982Z,24.12
2018-09-21T06:12:01.729Z,24.05
2018-09-21T06:14:29.425Z,24.14
2018-09-21T06:16:57.228Z,24.13
2018-09-21T06:19:25.069Z,24.18
2018-09-21T06:21:52.841Z,24.24
2018-09-21T06:24:20.590Z,24.27
2018-09-21T06:26:48.400Z,24.42
2018-09-21T06:29:16.169Z,24.61
2018-09-21T06:31:43.893Z,24.72
2018-09-21T06:34:11.716Z,24.86
2018-09-21T06:36:39.432Z,25.03
2018-09-21T06:39:09.525Z,25.07
2018-09-21T06:41:37.636Z,25.20
2018-09-21T06:44:05.718Z,25.49
2018-09-21T06:46:33.538Z,25.73
2018-09-21T06:49:01.261Z,25.50
2018-09-21T06:51:29.073Z,25.58
2018-09-21T06:53:56.865Z,25.82
2018-09-21T06:56:24.543Z,25.98
2018-09-21T06:58:52.206Z,25.96
2018-09-21T07:01:19.969Z,25.99
2018-09-21T07:03:47.734Z,26.02
2018-09-21T07:06:15.427Z,26.17
2018-09-21T07:08:43.242Z,26.21
2018-09-21T07:11:10.997Z,26.11
2018-09-21T07:13:38.738Z,26.34
2018-09-21T07:16:06.526Z,26.70
2018-09-21T07:18:34.305Z,26.94
2018-09-21T07:21:02.051Z,27.14
2018-09-21T07:23:29.867Z,27.33
2018-09-21T07:25:57.633Z,27.67
2018-09-21T07:28:25.355Z,27.95
2018-09-21T07:30:53.159Z,28.02
2018-09-21T07:33:20.860Z,28.27
2018-09-21T07:35:48.606Z,28.68
2018-09-21T07:38:16.349Z,28.59
2018-09-21T07:40:44.106Z,28.77
2018-09-21T07:43:11.851Z,28.90
2018-09-21T07:45:39.636Z,29.38
2018-09-21T07:48:07.432Z,29.46
2018-09-21T07:50:35.199Z,29.49
2018-09-21T07:53:02.961Z,29.96
2018-09-21T07:55:30.793Z,30.77
2018-09-21T07:57:58.567Z,31.38
2018-09-21T08:00:26.338Z,31.78
2018-09-21T08:02:54.263Z,32.19
2018-09-21T08:05:37.817Z,32.60
2018-09-21T08:08:06.307Z,31.82
2018-09-21T08:10:34.414Z,32.32
2018-09-21T08:13:02.443Z,33.48
2018-09-21T08:15:30.786Z,34.22
2018-09-21T08:17:58.543Z,34.76
2018-09-21T08:20:26.720Z,35.27
2018-09-21T08:22:54.509Z,35.50
2018-09-21T08:25:22.226Z,35.49
2018-09-21T08:27:49.961Z,34.25
2018-09-21T08:30:17.817Z,34.76
2018-09-21T08:32:45.581Z,34.90
2018-09-21T08:35:13.358Z,33.45
2018-09-21T08:37:41.315Z,33.40
2018-09-21T08:40:09.787Z,34.22
2018-09-21T08:42:37.725Z,34.13
2018-09-21T08:45:06.630Z,33.85
2018-09-21T08:47:34.457Z,34.04
2018-09-21T08:50:02.258Z,33.68
2018-09-21T08:52:30.022Z,34.20
2018-09-21T08:54:57.774Z,34.05
2018-09-21T08:57:25.504Z,33.21
2018-09-21T08:59:53.190Z,32.73
2018-09-21T09:02:20.968Z,32.91
2018-09-21T09:04:48.689Z,33.36
2018-09-21T09:07:16.545Z,34.11
2018-09-21T09:09:44.246Z,35.04
2018-09-21T09:12:12.101Z,35.21
2018-09-21T09:14:39.814Z,35.22
2018-09-21T09:17:07.513Z,35.85
2018-09-21T09:19:35.323Z,35.34
2018-09-21T09:22:03.096Z,35.66
2018-09-21T09:24:30.938Z,35.39
2018-09-21T09:26:58.587Z,35.03
2018-09-21T09:29:26.280Z,35.17
2018-09-21T09:31:54.112Z,34.94
2018-09-21T09:34:21.920Z,34.93
2018-09-21T09:36:49.668Z,35.50
2018-09-21T09:39:17.362Z,35.13
2018-09-21T09:41:45.124Z,34.53
2018-09-21T09:44:13.249Z,34.88
2018-09-21T09:46:41.008Z,35.40
2018-09-21T09:49:08.775Z,35.43
2018-09-21T09:51:36.473Z,33.65
2018-09-21T09:54:04.265Z,33.46
2018-09-21T09:56:32.071Z,33.44
2018-09-21T09:58:59.860Z,33.56
2018-09-21T10:01:27.536Z,33.78
2018-09-21T10:03:55.411Z,33.47
2018-09-21T10:06:23.119Z,33.91
2018-09-21T10:08:50.944Z,33.95
2018-09-21T10:11:18.651Z,33.87
2018-09-21T10:13:46.409Z,33.24
2018-09-21T10:16:14.194Z,32.96
2018-09-21T10:18:41.990Z,32.02
2018-09-21T10:21:09.760Z,31.83
2018-09-21T10:23:37.501Z,31.44
2018-09-21T10:26:05.254Z,31.09
2018-09-21T10:28:33.384Z,30.83
2018-09-21T10:31:00.861Z,30.32
2018-09-21T10:33:28.674Z,30.45
2018-09-21T10:35:56.496Z,30.83
2018-09-21T10:38:24.171Z,31.48
2018-09-21T10:40:51.870Z,31.64
2018-09-21T10:43:19.676Z,31.92
2018-09-21T10:45:47.405Z,32.48
2018-09-21T10:48:15.170Z,32.05
2018-09-21T10:50:43.178Z,31.92
2018-09-21T10:53:10.959Z,31.87
2018-09-21T10:55:38.717Z,31.86
2018-09-21T10:58:06.444Z,33.16
2018-09-21T11:00:34.299Z,33.62
2018-09-21T11:03:02.021Z,33.56
2018-09-21T11:05:29.819Z,33.69
2018-09-21T11:07:57.521Z,34.04
2018-09-21T11:10:25.224Z,33.71
2018-09-21T11:12:53.006Z,33.61
2018-09-21T11:15:20.719Z,33.37
2018-09-21T11:17:48.507Z,32.88
2018-09-21T11:20:16.240Z,32.53
2018-09-21T11:22:44.028Z,33.84
2018-09-21T11:25:11.823Z,35.47
2018-09-21T11:27:39.588Z,36.90
2018-09-21T11:30:07.379Z,35.94
2018-09-21T11:32:35.189Z,33.76
2018-09-21T11:35:02.970Z,32.79
2018-09-21T11:37:30.886Z,32.18
2018-09-21T11:39:58.642Z,32.54
2018-09-21T11:42:32.268Z,32.93
2018-09-21T11:45:00.156Z,32.37
2018-09-21T11:47:28.065Z,31.81
2018-09-21T11:49:56.023Z,31.75
2018-09-21T11:52:24.060Z,31.59
2018-09-21T11:54:51.932Z,31.05
2018-09-21T11:57:19.965Z,30.83
2018-09-21T11:59:48.186Z,31.19
2018-09-21T12:02:16.257Z,32.21
2018-09-21T12:04:44.367Z,32.57
2018-09-21T12:07:12.208Z,32.43
2018-09-21T12:09:40.200Z,32.50
2018-09-21T12:12:08.202Z,31.88
2018-09-21T12:14:36.127Z,32.10
2018-09-21T12:17:04.032Z,32.18
2018-09-21T12:19:32.177Z,31.34
2018-09-21T12:22:00.374Z,31.04
2018-09-21T12:24:28.535Z,31.12
2018-09-21T12:26:56.244Z,30.96
2018-09-21T12:29:23.949Z,30.59
2018-09-21T12:31:51.626Z,30.40
2018-09-21T12:34:19.488Z,30.97
2018-09-21T12:36:47.382Z,32.43
2018-09-21T12:39:15.208Z,32.31
2018-09-21T12:41:43.413Z,31.76
2018-09-21T12:44:12.679Z,30.99
2018-09-21T12:46:40.382Z,30.90
2018-09-21T12:49:08.215Z,31.07
2018-09-21T12:51:36.066Z,30.70
2018-09-21T12:54:03.908Z,30.34
2018-09-21T12:56:31.838Z,30.14
2018-09-21T12:58:59.546Z,30.05
2018-09-21T13:01:27.301Z,29.85
2018-09-21T13:03:55.054Z,29.69
2018-09-21T13:06:22.897Z,29.51
2018-09-21T13:08:50.636Z,29.29
2018-09-21T13:11:18.431Z,29.44
2018-09-21T13:13:46.389Z,29.13
2018-09-21T13:16:14.098Z,29.12
2018-09-21T13:18:41.917Z,29.11
2018-09-21T13:21:09.672Z,28.93
2018-09-21T13:23:37.446Z,28.74
2018-09-21T13:26:05.195Z,28.72
2018-09-21T13:28:32.996Z,28.74
2018-09-21T13:31:00.729Z,28.90
2018-09-21T13:33:28.479Z,28.85
2018-09-21T13:35:56.414Z,28.90
2018-09-21T13:38:24.425Z,28.77
2018-09-21T13:40:52.725Z,28.96
2018-09-21T13:43:20.849Z,28.87
2018-09-21T13:45:48.693Z,29.00
2018-09-21T13:48:16.637Z,28.95
2018-09-21T13:50:44.919Z,28.86
2018-09-21T13:53:12.905Z,28.74
2018-09-21T13:55:40.941Z,28.75
2018-09-21T13:58:09.089Z,28.79
2018-09-21T14:00:37.008Z,28.82
2018-09-21T14:03:05.017Z,28.78
2018-09-21T14:05:33.335Z,28.90
2018-09-21T14:08:01.312Z,28.92
2018-09-21T14:10:29.279Z,29.62
2018-09-21T14:12:57.001Z,30.10
2018-09-21T14:15:24.920Z,29.70
2018-09-21T14:17:52.697Z,29.63
2018-09-21T14:20:20.598Z,29.49
2018-09-21T14:22:48.681Z,29.25
2018-09-21T14:25:16.418Z,29.10
2018-09-21T14:27:44.272Z,28.96
2018-09-21T14:30:11.955Z,28.88
2018-09-21T14:32:39.678Z,28.88
2018-09-21T14:35:07.381Z,28.75
2018-09-21T14:37:35.180Z,28.76
2018-09-21T14:40:02.897Z,28.64
2018-09-21T14:42:30.785Z,28.54
2018-09-21T14:44:58.505Z,28.33
2018-09-21T14:47:26.198Z,28.34
2018-09-21T14:49:53.862Z,28.34
2018-09-21T14:52:21.617Z,28.25
2018-09-21T14:54:49.299Z,28.20
2018-09-21T14:57:17.267Z,28.15
2018-09-21T14:59:45.042Z,28.15
2018-09-21T15:02:12.760Z,28.09
2018-09-21T15:04:40.513Z,28.02
2018-09-21T15:07:09.393Z,27.86
2018-09-21T15:09:37.927Z,27.52
2018-09-21T15:12:05.734Z,27.29
2018-09-21T15:14:33.455Z,27.16
2018-09-21T15:17:01.184Z,26.97
2018-09-21T15:19:28.849Z,26.97
2018-09-21T15:21:56.560Z,26.95
2018-09-21T15:24:24.421Z,26.97
2018-09-21T15:26:52.246Z,26.83
2018-09-21T15:29:19.946Z,26.77
2018-09-21T15:31:47.856Z,26.74
2018-09-21T15:34:15.939Z,26.60
2018-09-21T15:36:43.712Z,26.53
2018-09-21T15:39:12.221Z,26.63
2018-09-21T15:41:40.524Z,26.57
2018-09-21T15:44:08.396Z,26.51
2018-09-21T15:46:36.513Z,26.41
2018-09-21T15:49:04.948Z,26.30
2018-09-21T15:51:32.744Z,26.42
2018-09-21T15:54:00.422Z,26.47
2018-09-21T15:56:28.083Z,26.54
2018-09-21T15:58:55.817Z,26.73
2018-09-21T16:01:23.566Z,26.73
2018-09-21T16:03:51.320Z,26.80
2018-09-21T16:06:19.220Z,26.78
2018-09-21T16:08:46.961Z,26.93
2018-09-21T16:11:14.830Z,26.87
2018-09-21T16:13:42.752Z,26.98
2018-09-21T16:16:10.542Z,26.79
2018-09-21T16:18:38.300Z,26.77
2018-09-21T16:21:06.082Z,26.76
2018-09-21T16:23:33.799Z,26.43
2018-09-21T16:26:01.508Z,26.09
2018-09-21T16:28:30.365Z,25.69
2018-09-21T16:30:58.072Z,25.35
2018-09-21T16:33:25.710Z,25.18
2018-09-21T16:35:53.555Z,24.26
2018-09-21T16:38:21.269Z,23.59
2018-09-21T16:40:48.942Z,22.68
2018-09-21T16:43:16.681Z,22.10
2018-09-21T16:45:44.369Z,21.74
2018-09-21T16:48:12.808Z,21.30
2018-09-21T16:50:40.544Z,21.11
2018-09-21T16:53:08.254Z,20.71
2018-09-21T16:55:35.964Z,20.51
2018-09-21T16:58:03.618Z,20.38
2018-09-21T17:00:31.361Z,20.23
2018-09-21T17:02:59.036Z,20.18
2018-09-21T17:05:26.778Z,19.99
2018-09-21T17:07:54.445Z,19.87
2018-09-21T17:10:22.148Z,19.59
2018-09-21T17:12:49.829Z,19.31
2018-09-21T17:15:17.485Z,19.30
2018-09-21T17:17:45.145Z,19.15
2018-09-21T17:20:12.902Z,18.96
2018-09-21T17:22:40.536Z,18.83
2018-09-21T17:25:08.713Z,18.87
2018-09-21T17:27:36.408Z,18.90
2018-09-21T17:30:04.263Z,19.02
2018-09-21T17:32:31.938Z,19.09
2018-09-21T17:34:59.623Z,19.07
2018-09-21T17:37:27.326Z,19.12
2018-09-21T17:39:55.068Z,18.89
2018-09-21T17:42:22.782Z,18.79
2018-09-21T17:44:51.107Z,18.86
2018-09-21T17:47:19.138Z,19.02
2018-09-21T17:49:46.799Z,19.03
2018-09-21T17:52:14.786Z,18.78
2018-09-21T17:54:42.724Z,18.55
2018-09-21T17:57:10.517Z,18.30
2018-09-21T17:59:38.378Z,18.27
2018-09-21T18:02:06.259Z,18.06
2018-09-21T18:04:34.141Z,18.05
2018-09-21T18:07:01.870Z,18.11
2018-09-21T18:09:29.785Z,18.00
2018-09-21T18:11:57.468Z,17.71
2018-09-21T18:14:25.265Z,17.76
2018-09-21T18:16:52.931Z,17.68
2018-09-21T18:19:20.602Z,17.87
2018-09-21T18:21:48.354Z,17.91
2018-09-21T18:24:16.103Z,17.40
2018-09-21T18:26:43.797Z,17.38
2018-09-21T18:29:11.517Z,17.43
2018-09-21T18:31:39.286Z,17.44
2018-09-21T18:34:07.054Z,17.47
2018-09-21T18:36:34.819Z,17.43
2018-09-21T18:39:02.779Z,17.51
2018-09-21T18:41:30.537Z,17.56
2018-09-21T18:43:58.343Z,17.57
2018-09-21T18:46:26.610Z,17.38
2018-09-21T18:48:54.783Z,17.24
2018-09-21T18:51:23.152Z,16.98
2018-09-21T18:53:51.130Z,16.75
2018-09-21T18:56:18.919Z,16.83
2018-09-21T18:58:46.749Z,16.82
2018-09-21T19:01:14.461Z,16.72
2018-09-21T19:03:42.784Z,16.88
2018-09-21T19:06:10.461Z,16.87
2018-09-21T19:08:38.158Z,16.93
2018-09-21T19:11:05.948Z,16.97
2018-09-21T19:13:33.923Z,16.76
2018-09-21T19:16:01.722Z,16.60
2018-09-21T19:18:29.488Z,16.50
2018-09-21T19:20:57.240Z,16.35
2018-09-21T19:23:24.957Z,16.38
2018-09-21T19:25:52.946Z,16.59
2018-09-21T19:28:21.158Z,16.59
2018-09-21T19:30:48.941Z,16.61
2018-09-21T19:33:17.865Z,16.66
2018-09-21T19:35:45.757Z,16.76
2018-09-21T19:38:13.869Z,16.67
2018-09-21T19:40:42.288Z,16.52
2018-09-21T19:43:10.195Z,16.45
2018-09-21T19:45:37.924Z,16.49
2018-09-21T19:48:05.863Z,16.54
2018-09-21T19:50:33.629Z,16.56
2018-09-21T19:53:01.498Z,16.42
2018-09-21T19:55:29.309Z,16.35
2018-09-21T19:57:57.042Z,16.38
2018-09-21T20:00:24.920Z,16.46
2018-09-21T20:02:52.784Z,16.43
2018-09-21T20:05:20.574Z,16.44
2018-09-21T20:07:48.579Z,16.42
2018-09-21T20:10:16.420Z,16.37
2018-09-21T20:12:44.282Z,16.49
2018-09-21T20:15:12.240Z,16.50
2018-09-21T20:17:39.905Z,16.53
2018-09-21T20:20:07.637Z,16.43
2018-09-21T20:22:35.337Z,16.35
2018-09-21T20:25:03.482Z,16.23
2018-09-21T20:27:31.176Z,16.33
2018-09-21T20:30:04.447Z,16.38
2018-09-21T20:32:37.926Z,16.39
2018-09-21T20:35:06.031Z,16.47
2018-09-21T20:37:34.030Z,16.46
2018-09-21T20:40:01.838Z,16.33
2018-09-21T20:42:29.574Z,16.38
2018-09-21T20:44:57.359Z,16.34
2018-09-21T20:47:25.147Z,16.24
2018-09-21T20:49:52.878Z,16.16
2018-09-21T20:52:20.936Z,16.21
2018-09-21T20:54:48.786Z,16.15
2018-09-21T20:57:16.572Z,16.08
2018-09-21T20:59:44.302Z,16.10
2018-09-21T21:02:12.065Z,16.23
2018-09-21T21:04:40.115Z,16.30
2018-09-21T21:07:07.903Z,16.24
2018-09-21T21:09:35.648Z,16.24
2018-09-21T21:12:03.544Z,16.30
2018-09-21T21:14:31.260Z,16.25
2018-09-21T21:16:58.972Z,16.20
2018-09-21T21:19:26.791Z,16.33
2018-09-21T21:21:54.797Z,16.33
2018-09-21T21:24:22.878Z,16.35
2018-09-21T21:26:50.691Z,16.53
2018-09-21T21:29:18.393Z,16.26
2018-09-21T21:31:46.078Z,16.43
2018-09-21T21:34:13.972Z,16.43
2018-09-21T21:36:41.704Z,16.24
2018-09-21T21:39:09.942Z,16.10
2018-09-21T21:41:37.834Z,16.04
2018-09-21T21:44:05.670Z,15.87
2018-09-21T21:46:33.423Z,15.82
2018-09-21T21:49:02.304Z,15.86
2018-09-21T21:51:30.115Z,15.83
2018-09-21T21:53:57.856Z,15.62
2018-09-21T21:56:25.600Z,15.67
2018-09-21T21:58:53.342Z,15.89
2018-09-21T22:01:26.560Z,15.68
2018-09-21T22:03:54.584Z,15.56
2018-09-21T22:06:22.355Z,15.48
2018-09-21T22:08:50.110Z,15.39
2018-09-21T22:11:23.549Z,15.31
2018-09-21T22:13:56.692Z,15.33
2018-09-21T22:16:24.495Z,15.23
2018-09-21T22:18:52.219Z,15.14
2018-09-21T22:21:19.973Z,15.11
2018-09-21T22:23:47.684Z,15.04
2018-09-21T22:26:15.520Z,15.02
2018-09-21T22:28:43.258Z,15.23
2018-09-21T22:31:11.016Z,15.47
2018-09-21T22:33:38.851Z,15.50
2018-09-21T22:36:06.931Z,15.51
2018-09-21T22:38:34.689Z,15.26
2018-09-21T22:41:02.464Z,15.20
2018-09-21T22:43:30.282Z,15.19
2018-09-21T22:45:58.030Z,15.14
2018-09-21T22:48:25.871Z,15.06
2018-09-21T22:50:53.856Z,15.01
2018-09-21T22:53:21.603Z,14.95
2018-09-21T22:55:49.437Z,14.82
2018-09-21T22:58:17.252Z,14.90
2018-09-21T23:00:45.005Z,14.69
2018-09-21T23:03:12.958Z,14.78
2018-09-21T23:05:40.637Z,14.60
2018-09-21T23:08:08.472Z,14.51
2018-09-21T23:10:36.247Z,14.58
2018-09-21T23:13:03.973Z,14.56
2018-09-21T23:15:31.736Z,14.53
2018-09-21T23:17:59.574Z,14.55
2018-09-21T23:20:27.257Z,14.58
2018-09-21T23:22:55.126Z,14.56
2018-09-21T23:25:22.964Z,14.66
2018-09-21T23:27:50.676Z,14.78
2018-09-21T23:30:18.425Z,14.72
2018-09-21T23:32:46.349Z,14.72
2018-09-21T23:35:14.198Z,14.71
2018-09-21T23:37:41.961Z,14.88
2018-09-21T23:40:09.781Z,14.92
2018-09-21T23:42:37.474Z,14.84
2018-09-21T23:45:05.594Z,14.79
2018-09-21T23:47:33.550Z,14.57
2018-09-21T23:50:01.319Z,14.57
2018-09-21T23:52:29.027Z,14.56
2018-09-21T23:54:56.799Z,14.52
2018-09-21T23:57:24.520Z,14.33
2018-09-21T23:59:52.284Z,14.38
